sensor_id;sensor_type;location;lat;lon;timestamp;P1;durP1;ratioP1;P2;durP2;ratioP2
21731;SDS011;11028;51.156;17.130;2023-04-06T00:06:01;85.72;;;41.97;;
21731;SDS011;11028;51.156;17.130;2023-04-06T00:13:21;90.53;;;43.35;;
21731;SDS011;11028;51.156;17.130;2023-04-06T00:20:39;99.78;;;47.05;;
21731;SDS011;11028;51.156;17.130;2023-04-06T00:27:58;118.97;;;51.85;;
21731;SDS011;11028;51.156;17.130;2023-04-06T00:35:18;102.85;;;49.50;;
21731;SDS011;11028;51.156;17.130;2023-04-06T00:42:36;107.15;;;51.13;;
21731;SDS011;11028;51.156;17.130;2023-04-06T00:49:55;126.20;;;54.70;;
21731;SDS011;11028;51.156;17.130;2023-04-06T00:57:15;112.32;;;49.85;;
21731;SDS011;11028;51.156;17.130;2023-04-06T01:04:36;104.87;;;50.50;;
21731;SDS011;11028;51.156;17.130;2023-04-06T01:11:59;100.38;;;47.75;;
21731;SDS011;11028;51.156;17.130;2023-04-06T01:19:21;115.60;;;53.80;;
21731;SDS011;11028;51.156;17.130;2023-04-06T01:26:44;79.40;;;37.77;;
21731;SDS011;11028;51.156;17.130;2023-04-06T01:34:02;116.43;;;56.35;;
21731;SDS011;11028;51.156;17.130;2023-04-06T01:41:22;110.53;;;51.00;;
21731;SDS011;11028;51.156;17.130;2023-04-06T01:48:43;102.65;;;47.92;;
21731;SDS011;11028;51.156;17.130;2023-04-06T01:56:10;91.75;;;44.97;;
21731;SDS011;11028;51.156;17.130;2023-04-06T02:03:35;80.18;;;43.13;;
21731;SDS011;11028;51.156;17.130;2023-04-06T02:10:59;81.60;;;42.03;;
21731;SDS011;11028;51.156;17.130;2023-04-06T02:18:23;88.63;;;42.83;;
21731;SDS011;11028;51.156;17.130;2023-04-06T02:25:41;83.20;;;41.72;;
21731;SDS011;11028;51.156;17.130;2023-04-06T02:33:01;79.40;;;37.13;;
21731;SDS011;11028;51.156;17.130;2023-04-06T02:40:28;79.10;;;39.35;;
21731;SDS011;11028;51.156;17.130;2023-04-06T02:47:54;70.97;;;36.20;;
21731;SDS011;11028;51.156;17.130;2023-04-06T02:55:16;77.15;;;36.80;;
21731;SDS011;11028;51.156;17.130;2023-04-06T03:02:38;74.45;;;35.40;;
21731;SDS011;11028;51.156;17.130;2023-04-06T03:10:00;73.77;;;35.17;;
21731;SDS011;11028;51.156;17.130;2023-04-06T03:17:23;65.53;;;33.47;;
21731;SDS011;11028;51.156;17.130;2023-04-06T03:24:44;66.33;;;34.10;;
21731;SDS011;11028;51.156;17.130;2023-04-06T03:32:02;69.70;;;33.60;;
21731;SDS011;11028;51.156;17.130;2023-04-06T03:39:27;69.38;;;36.20;;
21731;SDS011;11028;51.156;17.130;2023-04-06T03:46:45;70.57;;;34.72;;
21731;SDS011;11028;51.156;17.130;2023-04-06T03:54:05;70.30;;;35.33;;
21731;SDS011;11028;51.156;17.130;2023-04-06T04:01:27;65.53;;;34.47;;
21731;SDS011;11028;51.156;17.130;2023-04-06T04:08:46;73.68;;;35.40;;
21731;SDS011;11028;51.156;17.130;2023-04-06T04:16:04;75.97;;;37.17;;
21731;SDS011;11028;51.156;17.130;2023-04-06T04:23:26;67.63;;;35.05;;
21731;SDS011;11028;51.156;17.130;2023-04-06T04:30:44;70.60;;;34.42;;
21731;SDS011;11028;51.156;17.130;2023-04-06T04:38:04;81.70;;;35.92;;
21731;SDS011;11028;51.156;17.130;2023-04-06T04:45:28;71.22;;;35.05;;
21731;SDS011;11028;51.156;17.130;2023-04-06T04:52:52;83.18;;;37.00;;
21731;SDS011;11028;51.156;17.130;2023-04-06T05:00:14;75.90;;;37.10;;
21731;SDS011;11028;51.156;17.130;2023-04-06T05:07:35;68.53;;;36.42;;
21731;SDS011;11028;51.156;17.130;2023-04-06T05:14:56;66.63;;;34.43;;
21731;SDS011;11028;51.156;17.130;2023-04-06T05:22:16;64.95;;;31.73;;
21731;SDS011;11028;51.156;17.130;2023-04-06T05:29:44;63.22;;;32.10;;
21731;SDS011;11028;51.156;17.130;2023-04-06T05:37:03;69.30;;;35.10;;
21731;SDS011;11028;51.156;17.130;2023-04-06T05:44:22;70.90;;;34.08;;
21731;SDS011;11028;51.156;17.130;2023-04-06T05:51:51;61.55;;;31.10;;
21731;SDS011;11028;51.156;17.130;2023-04-06T05:59:11;65.65;;;32.00;;
21731;SDS011;11028;51.156;17.130;2023-04-06T06:06:30;55.33;;;27.60;;
21731;SDS011;11028;51.156;17.130;2023-04-06T06:14:00;57.40;;;27.17;;
21731;SDS011;11028;51.156;17.130;2023-04-06T06:21:22;40.67;;;22.10;;
21731;SDS011;11028;51.156;17.130;2023-04-06T06:28:41;44.38;;;23.33;;
21731;SDS011;11028;51.156;17.130;2023-04-06T06:36:03;43.17;;;22.60;;
21731;SDS011;11028;51.156;17.130;2023-04-06T06:43:21;42.88;;;23.33;;
21731;SDS011;11028;51.156;17.130;2023-04-06T06:50:49;43.03;;;24.38;;
21731;SDS011;11028;51.156;17.130;2023-04-06T06:58:09;53.55;;;26.23;;
21731;SDS011;11028;51.156;17.130;2023-04-06T07:05:28;47.65;;;26.42;;
21731;SDS011;11028;51.156;17.130;2023-04-06T07:12:48;47.67;;;27.00;;
21731;SDS011;11028;51.156;17.130;2023-04-06T07:20:09;52.65;;;24.63;;
21731;SDS011;11028;51.156;17.130;2023-04-06T07:27:28;60.10;;;31.17;;
21731;SDS011;11028;51.156;17.130;2023-04-06T07:34:46;48.75;;;23.20;;
21731;SDS011;11028;51.156;17.130;2023-04-06T07:42:06;35.05;;;18.52;;
21731;SDS011;11028;51.156;17.130;2023-04-06T07:49:25;25.08;;;15.05;;
21731;SDS011;11028;51.156;17.130;2023-04-06T07:56:44;29.20;;;16.35;;
21731;SDS011;11028;51.156;17.130;2023-04-06T08:04:03;32.13;;;16.85;;
21731;SDS011;11028;51.156;17.130;2023-04-06T08:11:22;36.55;;;19.30;;
21731;SDS011;11028;51.156;17.130;2023-04-06T08:18:40;22.90;;;13.48;;
21731;SDS011;11028;51.156;17.130;2023-04-06T08:26:00;26.13;;;13.10;;
21731;SDS011;11028;51.156;17.130;2023-04-06T08:33:18;24.88;;;14.25;;
21731;SDS011;11028;51.156;17.130;2023-04-06T08:40:36;20.15;;;11.73;;
21731;SDS011;11028;51.156;17.130;2023-04-06T08:47:57;15.80;;;9.20;;
21731;SDS011;11028;51.156;17.130;2023-04-06T08:55:18;13.70;;;7.70;;
21731;SDS011;11028;51.156;17.130;2023-04-06T09:02:37;14.93;;;8.13;;
21731;SDS011;11028;51.156;17.130;2023-04-06T09:09:58;13.57;;;7.63;;
21731;SDS011;11028;51.156;17.130;2023-04-06T09:17:20;12.75;;;7.32;;
21731;SDS011;11028;51.156;17.130;2023-04-06T09:24:39;11.65;;;8.10;;
21731;SDS011;11028;51.156;17.130;2023-04-06T09:32:04;15.05;;;8.55;;
21731;SDS011;11028;51.156;17.130;2023-04-06T09:39:23;16.30;;;8.63;;
21731;SDS011;11028;51.156;17.130;2023-04-06T09:46:42;14.52;;;8.55;;
21731;SDS011;11028;51.156;17.130;2023-04-06T09:54:18;12.05;;;7.93;;
21731;SDS011;11028;51.156;17.130;2023-04-06T10:01:36;12.50;;;8.55;;
21731;SDS011;11028;51.156;17.130;2023-04-06T10:08:55;11.30;;;6.47;;
21731;SDS011;11028;51.156;17.130;2023-04-06T10:16:16;10.25;;;6.55;;
21731;SDS011;11028;51.156;17.130;2023-04-06T10:23:35;9.85;;;7.10;;
21731;SDS011;11028;51.156;17.130;2023-04-06T10:30:58;11.43;;;6.55;;
21731;SDS011;11028;51.156;17.130;2023-04-06T10:38:19;9.32;;;5.80;;
21731;SDS011;11028;51.156;17.130;2023-04-06T10:45:38;11.43;;;7.35;;
21731;SDS011;11028;51.156;17.130;2023-04-06T10:53:00;11.73;;;6.95;;
21731;SDS011;11028;51.156;17.130;2023-04-06T11:00:21;11.60;;;8.20;;
21731;SDS011;11028;51.156;17.130;2023-04-06T11:07:44;10.57;;;7.38;;
21731;SDS011;11028;51.156;17.130;2023-04-06T11:15:03;15.25;;;7.28;;
21731;SDS011;11028;51.156;17.130;2023-04-06T11:22:24;11.52;;;7.97;;
21731;SDS011;11028;51.156;17.130;2023-04-06T11:29:42;12.45;;;7.78;;
21731;SDS011;11028;51.156;17.130;2023-04-06T11:37:03;12.20;;;8.10;;
21731;SDS011;11028;51.156;17.130;2023-04-06T11:44:28;13.15;;;9.13;;
21731;SDS011;11028;51.156;17.130;2023-04-06T11:51:47;16.65;;;9.27;;
21731;SDS011;11028;51.156;17.130;2023-04-06T11:59:06;13.93;;;9.70;;
21731;SDS011;11028;51.156;17.130;2023-04-06T12:06:25;15.57;;;9.57;;
21731;SDS011;11028;51.156;17.130;2023-04-06T12:13:43;15.18;;;9.90;;
21731;SDS011;11028;51.156;17.130;2023-04-06T12:21:02;14.00;;;8.85;;
21731;SDS011;11028;51.156;17.130;2023-04-06T12:28:23;13.77;;;9.02;;
21731;SDS011;11028;51.156;17.130;2023-04-06T12:35:43;18.10;;;9.00;;
21731;SDS011;11028;51.156;17.130;2023-04-06T12:43:01;13.35;;;8.55;;
21731;SDS011;11028;51.156;17.130;2023-04-06T12:50:21;12.68;;;7.57;;
21731;SDS011;11028;51.156;17.130;2023-04-06T12:57:39;10.20;;;6.57;;
21731;SDS011;11028;51.156;17.130;2023-04-06T13:04:58;8.93;;;5.97;;
21731;SDS011;11028;51.156;17.130;2023-04-06T13:12:17;11.20;;;7.18;;
21731;SDS011;11028;51.156;17.130;2023-04-06T13:19:36;13.02;;;6.72;;
21731;SDS011;11028;51.156;17.130;2023-04-06T13:26:54;10.20;;;6.53;;
21731;SDS011;11028;51.156;17.130;2023-04-06T13:34:13;10.40;;;7.00;;
21731;SDS011;11028;51.156;17.130;2023-04-06T13:41:32;10.68;;;7.55;;
21731;SDS011;11028;51.156;17.130;2023-04-06T13:48:50;16.40;;;9.77;;
21731;SDS011;11028;51.156;17.130;2023-04-06T13:56:11;12.20;;;7.93;;
21731;SDS011;11028;51.156;17.130;2023-04-06T14:03:29;13.20;;;7.15;;
21731;SDS011;11028;51.156;17.130;2023-04-06T14:10:48;10.30;;;7.43;;
21731;SDS011;11028;51.156;17.130;2023-04-06T14:18:08;13.43;;;7.78;;
21731;SDS011;11028;51.156;17.130;2023-04-06T14:25:27;13.85;;;8.27;;
21731;SDS011;11028;51.156;17.130;2023-04-06T14:32:47;12.38;;;7.47;;
21731;SDS011;11028;51.156;17.130;2023-04-06T14:40:08;12.02;;;7.20;;
21731;SDS011;11028;51.156;17.130;2023-04-06T14:47:26;14.30;;;7.85;;
21731;SDS011;11028;51.156;17.130;2023-04-06T14:54:44;11.10;;;7.28;;
21731;SDS011;11028;51.156;17.130;2023-04-06T15:02:04;14.80;;;8.65;;
21731;SDS011;11028;51.156;17.130;2023-04-06T15:09:22;15.35;;;8.68;;
21731;SDS011;11028;51.156;17.130;2023-04-06T15:16:41;11.68;;;8.45;;
21731;SDS011;11028;51.156;17.130;2023-04-06T15:24:01;16.20;;;9.68;;
21731;SDS011;11028;51.156;17.130;2023-04-06T15:31:22;24.40;;;13.77;;
21731;SDS011;11028;51.156;17.130;2023-04-06T15:38:53;13.50;;;8.68;;
21731;SDS011;11028;51.156;17.130;2023-04-06T15:46:13;15.05;;;8.98;;
21731;SDS011;11028;51.156;17.130;2023-04-06T15:53:31;15.02;;;9.63;;
21731;SDS011;11028;51.156;17.130;2023-04-06T16:00:51;20.30;;;9.82;;
21731;SDS011;11028;51.156;17.130;2023-04-06T16:08:11;14.60;;;9.00;;
21731;SDS011;11028;51.156;17.130;2023-04-06T16:15:32;15.93;;;9.13;;
21731;SDS011;11028;51.156;17.130;2023-04-06T16:22:50;18.92;;;10.50;;
21731;SDS011;11028;51.156;17.130;2023-04-06T16:30:10;15.00;;;8.88;;
21731;SDS011;11028;51.156;17.130;2023-04-06T16:37:29;15.88;;;10.07;;
21731;SDS011;11028;51.156;17.130;2023-04-06T16:44:47;16.98;;;10.10;;
21731;SDS011;11028;51.156;17.130;2023-04-06T16:52:07;14.60;;;9.95;;
21731;SDS011;11028;51.156;17.130;2023-04-06T16:59:25;19.17;;;11.13;;
21731;SDS011;11028;51.156;17.130;2023-04-06T17:06:44;17.35;;;10.73;;
21731;SDS011;11028;51.156;17.130;2023-04-06T17:14:03;17.75;;;10.88;;
21731;SDS011;11028;51.156;17.130;2023-04-06T17:21:22;16.80;;;10.95;;
21731;SDS011;11028;51.156;17.130;2023-04-06T17:28:40;14.70;;;10.52;;
21731;SDS011;11028;51.156;17.130;2023-04-06T17:35:59;18.48;;;11.43;;
21731;SDS011;11028;51.156;17.130;2023-04-06T17:43:17;19.30;;;11.30;;
21731;SDS011;11028;51.156;17.130;2023-04-06T17:50:36;18.25;;;11.15;;
21731;SDS011;11028;51.156;17.130;2023-04-06T17:57:56;23.38;;;15.15;;
21731;SDS011;11028;51.156;17.130;2023-04-06T18:05:14;26.35;;;15.82;;
21731;SDS011;11028;51.156;17.130;2023-04-06T18:12:32;29.95;;;15.40;;
21731;SDS011;11028;51.156;17.130;2023-04-06T18:19:52;22.83;;;13.80;;
21731;SDS011;11028;51.156;17.130;2023-04-06T18:27:11;23.75;;;13.32;;
21731;SDS011;11028;51.156;17.130;2023-04-06T18:34:29;28.33;;;15.85;;
21731;SDS011;11028;51.156;17.130;2023-04-06T18:41:49;47.90;;;26.00;;
21731;SDS011;11028;51.156;17.130;2023-04-06T18:49:07;49.95;;;25.23;;
21731;SDS011;11028;51.156;17.130;2023-04-06T18:56:25;43.72;;;23.50;;
21731;SDS011;11028;51.156;17.130;2023-04-06T19:03:45;43.45;;;23.13;;
21731;SDS011;11028;51.156;17.130;2023-04-06T19:11:04;52.08;;;25.80;;
21731;SDS011;11028;51.156;17.130;2023-04-06T19:18:23;37.05;;;20.80;;
21731;SDS011;11028;51.156;17.130;2023-04-06T19:25:43;33.80;;;18.90;;
21731;SDS011;11028;51.156;17.130;2023-04-06T19:33:01;39.13;;;20.63;;
21731;SDS011;11028;51.156;17.130;2023-04-06T19:40:20;37.13;;;18.13;;
21731;SDS011;11028;51.156;17.130;2023-04-06T19:47:40;36.03;;;16.77;;
21731;SDS011;11028;51.156;17.130;2023-04-06T19:54:58;80.75;;;31.33;;
21731;SDS011;11028;51.156;17.130;2023-04-06T20:02:16;71.60;;;30.67;;
21731;SDS011;11028;51.156;17.130;2023-04-06T20:09:36;35.53;;;18.58;;
21731;SDS011;11028;51.156;17.130;2023-04-06T20:16:55;161.88;;;52.63;;
21731;SDS011;11028;51.156;17.130;2023-04-06T20:24:13;71.55;;;34.38;;
21731;SDS011;11028;51.156;17.130;2023-04-06T20:31:33;171.07;;;54.53;;
21731;SDS011;11028;51.156;17.130;2023-04-06T20:38:51;122.55;;;43.08;;
21731;SDS011;11028;51.156;17.130;2023-04-06T20:46:13;53.38;;;26.45;;
21731;SDS011;11028;51.156;17.130;2023-04-06T20:53:33;69.32;;;25.58;;
21731;SDS011;11028;51.156;17.130;2023-04-06T21:00:52;29.73;;;17.98;;
21731;SDS011;11028;51.156;17.130;2023-04-06T21:08:10;55.22;;;22.27;;
21731;SDS011;11028;51.156;17.130;2023-04-06T21:22:49;30.70;;;17.25;;
21731;SDS011;11028;51.156;17.130;2023-04-06T21:30:07;185.10;;;52.47;;
21731;SDS011;11028;51.156;17.130;2023-04-06T21:37:28;42.58;;;21.60;;
21731;SDS011;11028;51.156;17.130;2023-04-06T21:44:46;277.67;;;67.22;;
21731;SDS011;11028;51.156;17.130;2023-04-06T21:52:04;223.77;;;69.05;;
21731;SDS011;11028;51.156;17.130;2023-04-06T21:59:24;39.30;;;21.05;;
21731;SDS011;11028;51.156;17.130;2023-04-06T22:06:43;32.08;;;17.73;;
21731;SDS011;11028;51.156;17.130;2023-04-06T22:14:01;30.95;;;17.08;;
21731;SDS011;11028;51.156;17.130;2023-04-06T22:21:23;34.83;;;17.73;;
21731;SDS011;11028;51.156;17.130;2023-04-06T22:28:42;30.80;;;17.27;;
21731;SDS011;11028;51.156;17.130;2023-04-06T22:36:00;30.08;;;17.88;;
21731;SDS011;11028;51.156;17.130;2023-04-06T22:43:21;32.10;;;18.13;;
21731;SDS011;11028;51.156;17.130;2023-04-06T22:50:39;29.23;;;15.13;;
21731;SDS011;11028;51.156;17.130;2023-04-06T22:57:58;23.30;;;14.32;;
21731;SDS011;11028;51.156;17.130;2023-04-06T23:05:18;26.85;;;13.27;;
21731;SDS011;11028;51.156;17.130;2023-04-06T23:12:36;22.50;;;12.88;;
21731;SDS011;11028;51.156;17.130;2023-04-06T23:19:54;23.90;;;14.15;;
21731;SDS011;11028;51.156;17.130;2023-04-06T23:27:16;24.30;;;13.75;;
21731;SDS011;11028;51.156;17.130;2023-04-06T23:34:34;24.70;;;13.65;;
21731;SDS011;11028;51.156;17.130;2023-04-06T23:41:52;22.10;;;13.23;;
21731;SDS011;11028;51.156;17.130;2023-04-06T23:49:12;21.88;;;12.85;;
21731;SDS011;11028;51.156;17.130;2023-04-06T23:56:30;20.17;;;12.82;;
